Time;durP1;ratioP1;P1;durP2;ratioP2;P2;SDS_P1;SDS_P2;PMS_P1;PMS_P2;Temp;Humidity;BMP_temperature;BMP_pressure;BME280_temperature;BME280_humidity;BME280_pressure;Samples;Min_cycle;Max_cycle;Signal;HPM_P1;HPM_P2
2021/07/15 00:01:11;;;;;;;;;;;;;;;21.49;100.00;99300.41;1806811;79;20066;-69
2021/07/15 00:03:37;;;;;;;;;;;;;;;21.46;100.00;99300.25;1793159;80;20110;-69
2021/07/15 00:06:05;;;;;;;;;;;;;;;21.39;100.00;99300.23;1793282;80;20082;-68
2021/07/15 00:08:31;;;;;;;;;;;;;;;21.35;100.00;99295.16;1793418;80;20392;-69
2021/07/15 00:11:00;;;;;;;;;;;;;;;21.35;100.00;99288.91;1793351;80;20074;-69
2021/07/15 00:13:28;;;;;;;;;;;;;;;21.33;100.00;99292.53;1792903;79;20177;-69
2021/07/15 00:15:56;;;;;;;;;;;;;;;21.32;100.00;99294.47;1793195;78;20094;-69
2021/07/15 00:18:27;;;;;;;;;;;;;;;21.29;100.00;99289.68;1793238;80;20074;-69
2021/07/15 00:20:56;;;;;;;;;;;;;;;21.25;100.00;99292.03;1793175;80;20066;-68
2021/07/15 00:23:24;;;;;;;;;;;;;;;21.21;100.00;99293.24;1793384;78;20062;-69
2021/07/15 00:25:52;;;;;;;;;;;;;;;21.19;100.00;99287.31;1793157;79;20168;-69
2021/07/15 00:28:19;;;;;;;;;;;;;;;21.15;100.00;99289.91;1793031;78;20149;-68
2021/07/15 00:30:45;;;;;;;;;;;;;;;21.11;100.00;99284.87;1771038;80;20387;-69
2021/07/15 00:33:12;;;;;;;;;;;;;;;21.07;100.00;99280.41;1793517;78;20152;-69
2021/07/15 00:35:39;;;;;;;;;;;;;;;20.97;100.00;99282.41;1793353;80;20090;-69
2021/07/15 00:38:05;;;;;;;;;;;;;;;20.90;100.00;99290.30;1793312;80;21051;-69
2021/07/15 00:40:32;;;;;;;;;;;;;;;20.86;100.00;99294.02;1793227;80;20109;-69
2021/07/15 00:43:00;;;;;;;;;;;;;;;20.85;100.00;99294.59;1771654;80;20074;-69
2021/07/15 00:45:27;;;;;;;;;;;;;;;20.87;100.00;99290.14;1793400;80;20142;-69
2021/07/15 00:47:53;;;;;;;;;;;;;;;20.89;100.00;99294.14;1793304;80;20074;-69
2021/07/15 00:50:21;;;;;;;;;;;;;;;20.90;100.00;99294.97;1771458;80;20533;-69
2021/07/15 00:52:49;;;;;;;;;;;;;;;20.92;100.00;99298.97;1793184;79;20105;-69
2021/07/15 00:55:21;;;;;;;;;;;;;;;20.90;100.00;99301.79;1793299;80;20074;-69
2021/07/15 00:57:50;;;;;;;;;;;;;;;20.88;100.00;99297.22;1793070;78;20380;-69
2021/07/15 01:00:17;;;;;;;;;;;;;;;20.86;100.00;99289.92;1793243;80;20122;-69
2021/07/15 01:02:44;;;;;;;;;;;;;;;20.88;100.00;99292.55;1818040;79;21773;-68
2021/07/15 01:05:12;;;;;;;;;;;;;;;20.92;100.00;99295.41;1818400;79;20086;-69
2021/07/15 01:07:39;;;;;;;;;;;;;;;20.92;100.00;99292.14;1818745;79;20335;-69
2021/07/15 01:10:06;;;;;;;;;;;;;;;20.88;100.00;99295.28;1818288;79;20102;-69
2021/07/15 01:12:57;;;;;;;;;;;;;;;20.81;100.00;99292.84;1818416;79;20101;-69
2021/07/15 01:15:28;;;;;;;;;;;;;;;20.78;100.00;99290.20;1817459;79;20086;-68
2021/07/15 01:18:15;;;;;;;;;;;;;;;20.75;100.00;99298.48;1818250;79;20376;-68
2021/07/15 01:21:06;;;;;;;;;;;;;;;20.71;100.00;99301.62;1818552;79;20110;-69
2021/07/15 01:24:07;;;;;;;;;;;;;;;20.65;100.00;99297.48;1818085;79;20090;-69
2021/07/15 01:26:53;;;;;;;;;;;;;;;20.61;100.00;99306.07;1818468;79;20078;-68
2021/07/15 01:29:57;;;;;;;;;;;;;;;20.48;100.00;99292.86;1818072;79;20469;-68
2021/07/15 01:32:26;;;;;;;;;;;;;;;20.46;100.00;99295.11;1818364;79;20098;-68
2021/07/15 01:34:55;;;;;;;;;;;;;;;20.46;100.00;99293.75;1818317;79;20093;-68
2021/07/15 01:37:22;;;;;;;;;;;;;;;20.49;100.00;99292.30;1818318;79;20129;-67
2021/07/15 01:39:49;;;;;;;;;;;;;;;20.49;100.00;99299.11;1818425;79;20114;-68
2021/07/15 01:42:17;;;;;;;;;;;;;;;20.48;100.00;99289.31;1788964;79;21849;-67
2021/07/15 01:44:43;;;;;;;;;;;;;;;20.45;100.00;99293.49;1818318;79;20136;-67
2021/07/15 01:47:10;;;;;;;;;;;;;;;20.44;100.00;99292.47;1788059;79;20384;-68
2021/07/15 01:49:36;;;;;;;;;;;;;;;20.42;100.00;99294.72;1818540;79;20402;-67
2021/07/15 01:52:04;;;;;;;;;;;;;;;20.42;100.00;99292.78;1818421;79;20093;-68
2021/07/15 01:54:30;;;;;;;;;;;;;;;20.42;100.00;99292.78;1818578;79;21127;-68
2021/07/15 01:56:56;;;;;;;;;;;;;;;20.42;100.00;99297.44;1789032;79;20376;-67
2021/07/15 01:59:27;;;;;;;;;;;;;;;20.40;100.00;99295.03;1818224;79;20114;-67
2021/07/15 02:01:55;;;;;;;;;;;;;;;20.41;100.00;99301.31;1805053;78;20173;-68
2021/07/15 02:04:21;;;;;;;;;;;;;;;20.40;100.00;99296.39;1793072;78;20086;-68
2021/07/15 02:06:48;;;;;;;;;;;;;;;20.38;100.00;99304.09;1793241;80;21750;-67
2021/07/15 02:09:15;;;;;;;;;;;;;;;20.37;100.00;99302.50;1793066;80;20073;-68
2021/07/15 02:11:43;;;;;;;;;;;;;;;20.39;100.00;99309.00;1793266;80;20078;-68
2021/07/15 02:14:12;;;;;;;;;;;;;;;20.35;100.00;99306.91;1793597;78;20403;-67
2021/07/15 02:16:44;;;;;;;;;;;;;;;20.34;100.00;99309.41;1793112;80;20086;-68
2021/07/15 02:19:11;;;;;;;;;;;;;;;20.33;100.00;99309.19;1792840;80;21094;-68
2021/07/15 02:21:39;;;;;;;;;;;;;;;20.37;100.00;99312.05;1793217;80;20400;-68
2021/07/15 02:24:11;;;;;;;;;;;;;;;20.38;100.00;99311.48;1793240;78;20074;-68
2021/07/15 02:26:38;;;;;;;;;;;;;;;20.38;100.00;99310.11;1793184;80;20102;-68
2021/07/15 02:29:04;;;;;;;;;;;;;;;20.37;100.00;99309.32;1793324;80;20423;-68
2021/07/15 02:31:38;;;;;;;;;;;;;;;20.35;100.00;99310.99;1793123;78;21115;-68
2021/07/15 02:34:07;;;;;;;;;;;;;;;20.35;100.00;99313.72;1792974;78;20106;-67
2021/07/15 02:36:35;;;;;;;;;;;;;;;20.37;100.00;99314.77;1793258;80;20074;-68
2021/07/15 02:39:02;;;;;;;;;;;;;;;20.38;100.00;99321.02;1792984;78;20105;-67
2021/07/15 02:41:28;;;;;;;;;;;;;;;20.38;100.00;99316.92;1793317;80;20106;-68
2021/07/15 02:43:55;;;;;;;;;;;;;;;20.41;100.00;99319.81;1793159;80;21096;-67
2021/07/15 02:46:21;;;;;;;;;;;;;;;20.45;100.00;99318.59;1793051;78;20082;-67
2021/07/15 02:48:49;;;;;;;;;;;;;;;20.47;100.00;99310.89;1793202;78;20105;-67
2021/07/15 02:51:17;;;;;;;;;;;;;;;20.48;100.00;99313.84;1793118;80;20663;-68
2021/07/15 02:53:43;;;;;;;;;;;;;;;20.50;100.00;99321.14;1793723;78;20423;-67
2021/07/15 02:56:40;;;;;;;;;;;;;;;20.52;100.00;99317.53;1770024;80;21110;-67
2021/07/15 02:59:17;;;;;;;;;;;;;;;20.58;100.00;99320.91;1793199;80;20062;-68
2021/07/15 03:02:07;;;;;;;;;;;;;;;20.63;100.00;99320.72;1792956;78;20131;-68
2021/07/15 03:04:36;;;;;;;;;;;;;;;20.69;100.00;99318.86;1793071;80;20094;-68
2021/07/15 03:07:03;;;;;;;;;;;;;;;20.77;100.00;99325.41;1793050;78;20434;-68
2021/07/15 03:09:31;;;;;;;;;;;;;;;20.85;100.00;99323.22;1793131;79;20106;-68
2021/07/15 03:12:13;;;;;;;;;;;;;;;20.91;100.00;99317.80;1792870;78;20090;-68
2021/07/15 03:14:43;;;;;;;;;;;;;;;21.00;100.00;99322.44;1793076;80;20158;-68
2021/07/15 03:17:14;;;;;;;;;;;;;;;21.10;100.00;99325.58;1792998;80;20102;-68
2021/07/15 03:19:46;;;;;;;;;;;;;;;21.19;100.00;99323.61;1793157;80;20074;-67
2021/07/15 03:22:14;;;;;;;;;;;;;;;21.28;100.00;99325.48;1793235;80;20102;-67
2021/07/15 03:24:44;;;;;;;;;;;;;;;21.33;100.00;99323.34;1793154;80;20078;-67
2021/07/15 03:27:10;;;;;;;;;;;;;;;21.40;100.00;99320.92;1792869;80;20082;-67
2021/07/15 03:29:38;;;;;;;;;;;;;;;21.48;100.00;99327.45;1793096;78;20340;-67
2021/07/15 03:32:06;;;;;;;;;;;;;;;21.58;100.00;99326.27;1793253;78;20391;-67
2021/07/15 03:34:33;;;;;;;;;;;;;;;21.66;100.00;99324.05;1792966;80;21162;-68
2021/07/15 03:37:02;;;;;;;;;;;;;;;21.76;100.00;99329.11;1793197;80;20106;-68
2021/07/15 03:39:29;;;;;;;;;;;;;;;21.86;100.00;99323.81;1793128;78;20113;-67
2021/07/15 03:41:55;;;;;;;;;;;;;;;21.94;100.00;99327.02;1793406;80;20412;-67
2021/07/15 03:44:21;;;;;;;;;;;;;;;22.03;100.00;99327.75;1793269;78;20351;-67
2021/07/15 03:46:50;;;;;;;;;;;;;;;22.10;100.00;99328.58;1771449;80;20086;-67
2021/07/15 03:49:17;;;;;;;;;;;;;;;22.19;100.00;99328.48;1793326;80;20082;-67
2021/07/15 03:51:46;;;;;;;;;;;;;;;22.24;100.00;99331.03;1793373;80;20129;-67
2021/07/15 03:54:13;;;;;;;;;;;;;;;22.31;100.00;99327.76;1793085;78;20121;-67
2021/07/15 03:56:41;;;;;;;;;;;;;;;22.39;100.00;99319.48;1793241;80;20075;-67
2021/07/15 03:59:08;;;;;;;;;;;;;;;22.44;100.00;99326.09;1793231;80;21808;-67
2021/07/15 04:01:36;;;;;;;;;;;;;;;22.53;100.00;99323.82;1792218;78;20098;-67
2021/07/15 04:04:08;;;;;;;;;;;;;;;22.62;100.00;99332.73;1787114;80;20153;-67
2021/07/15 04:06:35;;;;;;;;;;;;;;;22.69;100.00;99328.88;1787156;80;20424;-67
2021/07/15 04:09:04;;;;;;;;;;;;;;;22.70;100.00;99326.35;1787149;80;20094;-67
2021/07/15 04:11:30;;;;;;;;;;;;;;;22.78;100.00;99329.55;1754388;82;21127;-67
2021/07/15 04:13:58;;;;;;;;;;;;;;;22.90;100.00;99328.19;1757921;80;20078;-67
2021/07/15 04:16:46;;;;;;;;;;;;;;;23.05;100.00;99324.56;1754479;82;20118;-67
2021/07/15 04:19:13;;;;;;;;;;;;;;;23.15;100.00;99326.87;1787326;79;20131;-67
2021/07/15 04:21:42;;;;;;;;;;;;;;;23.22;100.00;99320.22;1754417;82;20111;-67
2021/07/15 04:24:09;;;;;;;;;;;;;;;23.28;100.00;99320.80;1787213;79;21090;-67
2021/07/15 04:26:35;;;;;;;;;;;;;;;23.39;100.00;99325.23;1754492;82;20119;-67
2021/07/15 04:29:02;;;;;;;;;;;;;;;23.48;100.00;99320.42;1787122;79;20147;-67
2021/07/15 04:31:51;;;;;;;;;;;;;;;23.57;100.00;99317.53;1727399;82;20139;-67
2021/07/15 04:34:18;;;;;;;;;;;;;;;23.61;100.00;99325.30;1758543;80;20090;-68
2021/07/15 04:36:46;;;;;;;;;;;;;;;23.74;100.00;99319.48;1754463;82;20070;-67
2021/07/15 04:39:12;;;;;;;;;;;;;;;23.81;100.00;99323.55;1786970;79;20113;-67
2021/07/15 04:41:40;;;;;;;;;;;;;;;23.97;100.00;99325.78;1754408;82;20412;-67
2021/07/15 04:44:06;;;;;;;;;;;;;;;24.17;100.00;99329.46;1758414;80;20118;-67
2021/07/15 04:46:33;;;;;;;;;;;;;;;24.31;100.00;99329.85;1702102;82;20103;-68
2021/07/15 04:48:59;;;;;;;;;;;;;;;24.45;100.00;99332.19;1786949;80;20542;-69
2021/07/15 04:51:26;;;;;;;;;;;;;;;24.57;100.00;99328.58;1754373;82;20103;-66
2021/07/15 04:53:54;;;;;;;;;;;;;;;24.74;100.00;99331.55;1787159;80;20078;-69
2021/07/15 04:56:20;;;;;;;;;;;;;;;24.96;100.00;99323.27;1727137;82;20103;-68
2021/07/15 04:58:46;;;;;;;;;;;;;;;25.10;100.00;99326.35;1787327;80;20102;-67
2021/07/15 05:01:13;;;;;;;;;;;;;;;25.21;100.00;99325.28;1733222;81;21784;-67
2021/07/15 05:03:41;;;;;;;;;;;;;;;25.29;100.00;99320.16;1749281;79;20076;-67
2021/07/15 05:06:08;;;;;;;;;;;;;;;25.37;100.00;99323.27;1749502;80;20097;-67
2021/07/15 05:08:39;;;;;;;;;;;;;;;25.49;100.00;99318.23;1749435;80;20069;-67
2021/07/15 05:11:06;;;;;;;;;;;;;;;25.58;100.00;99320.79;1718272;81;20184;-68
2021/07/15 05:13:34;;;;;;;;;;;;;;;25.71;100.00;99318.11;1757350;81;21093;-67
2021/07/15 05:16:00;;;;;;;;;;;;;;;25.94;100.00;99318.78;1754005;81;20094;-67
2021/07/15 05:18:26;;;;;;;;;;;;;;;26.17;100.00;99316.89;1803311;79;20095;-68
2021/07/15 05:20:54;;;;;;;;;;;;;;;26.32;100.00;99317.95;1802802;79;20445;-67
2021/07/15 05:23:21;;;;;;;;;;;;;;;26.44;100.00;99315.62;1822683;78;20062;-67
2021/07/15 05:25:51;;;;;;;;;;;;;;;26.56;100.00;99320.97;1824408;78;20180;-67
2021/07/15 05:28:18;;;;;;;;;;;;;;;26.67;100.00;99323.89;1824419;78;20090;-67
2021/07/15 05:30:46;;;;;;;;;;;;;;;26.64;100.00;99323.27;1824379;78;20090;-67
2021/07/15 05:33:13;;;;;;;;;;;;;;;26.71;100.00;99325.55;1768298;78;20114;-67
2021/07/15 05:35:40;;;;;;;;;;;;;;;26.93;100.00;99318.43;1765414;80;20204;-67
2021/07/15 05:38:08;;;;;;;;;;;;;;;27.04;100.00;99319.97;1760430;80;20184;-67
2021/07/15 05:40:34;;;;;;;;;;;;;;;27.16;100.00;99317.00;1765271;80;20144;-67
2021/07/15 05:43:03;;;;;;;;;;;;;;;27.26;100.00;99323.86;1798928;78;20086;-67
2021/07/15 05:45:31;;;;;;;;;;;;;;;27.37;100.00;99311.63;1816348;79;20086;-66
2021/07/15 05:47:58;;;;;;;;;;;;;;;27.41;100.00;99316.59;1816601;79;20094;-67
2021/07/15 05:50:24;;;;;;;;;;;;;;;27.56;100.00;99306.55;1816165;79;21102;-68
2021/07/15 05:52:52;;;;;;;;;;;;;;;27.50;100.00;99308.84;1778101;79;20149;-67
2021/07/15 05:55:18;;;;;;;;;;;;;;;27.60;100.00;99317.05;1765533;80;20121;-67
2021/07/15 05:57:46;;;;;;;;;;;;;;;27.76;100.00;99316.28;1760404;80;20129;-68
2021/07/15 06:00:14;;;;;;;;;;;;;;;27.89;100.00;99323.75;1763821;79;20132;-68
2021/07/15 06:02:41;;;;;;;;;;;;;;;28.06;100.00;99322.37;1793074;78;21124;-67
2021/07/15 06:05:08;;;;;;;;;;;;;;;28.18;100.00;99318.55;1803142;79;20086;-67
2021/07/15 06:07:36;;;;;;;;;;;;;;;28.31;100.00;99323.22;1803180;79;20150;-68
2021/07/15 06:10:06;;;;;;;;;;;;;;;28.63;100.00;99320.78;1784616;79;20150;-67
2021/07/15 06:12:33;;;;;;;;;;;;;;;28.98;99.67;99327.20;1772805;79;20164;-67
2021/07/15 06:14:59;;;;;;;;;;;;;;;29.06;95.36;99315.64;1758534;79;21054;-67
2021/07/15 06:17:26;;;;;;;;;;;;;;;29.05;93.95;99315.39;1757889;80;20110;-67
2021/07/15 06:19:54;;;;;;;;;;;;;;;29.04;93.46;99308.30;1758136;80;20141;-67
2021/07/15 06:22:20;;;;;;;;;;;;;;;29.05;91.56;99308.48;1787698;78;20824;-67
2021/07/15 06:24:47;;;;;;;;;;;;;;;29.22;89.86;99313.36;1830836;78;20142;-69
2021/07/15 06:27:15;;;;;;;;;;;;;;;29.40;87.00;99316.81;1778792;79;20106;-67
2021/07/15 06:29:42;;;;;;;;;;;;;;;29.54;86.38;99316.89;1767834;78;20204;-67
2021/07/15 06:32:10;;;;;;;;;;;;;;;29.70;86.99;99320.17;1774626;79;20424;-68
2021/07/15 06:34:38;;;;;;;;;;;;;;;29.56;82.33;99315.92;1824766;78;20607;-68
2021/07/15 06:37:06;;;;;;;;;;;;;;;29.67;83.01;99311.88;1826039;77;20074;-68
2021/07/15 06:39:33;;;;;;;;;;;;;;;29.99;83.21;99316.14;1825668;78;21926;-68
2021/07/15 06:41:59;;;;;;;;;;;;;;;30.05;80.56;99312.39;1787454;80;20074;-68
2021/07/15 06:44:26;;;;;;;;;;;;;;;30.01;79.65;99319.31;1797972;78;20085;-68
2021/07/15 06:46:52;;;;;;;;;;;;;;;30.28;81.19;99316.22;1797896;80;20121;-67
2021/07/15 06:49:19;;;;;;;;;;;;;;;30.42;76.96;99321.78;1776111;80;20110;-68
2021/07/15 06:51:46;;;;;;;;;;;;;;;30.54;76.53;99320.62;1801768;78;21985;-68
2021/07/15 06:54:14;;;;;;;;;;;;;;;30.56;74.58;99315.48;1830434;78;20224;-68
2021/07/15 06:56:59;;;;;;;;;;;;;;;30.73;75.04;99316.08;1830642;78;20114;-68
2021/07/15 06:59:57;;;;;;;;;;;;;;;30.90;73.74;99313.13;1781302;80;20080;-69
2021/07/15 07:02:23;;;;;;;;;;;;;;;31.02;73.04;99318.09;1754683;81;21466;-69
2021/07/15 07:04:49;;;;;;;;;;;;;;;31.14;71.21;99319.05;1729810;83;21092;-69
2021/07/15 07:07:16;;;;;;;;;;;;;;;31.15;70.59;99320.02;1729241;83;20418;-69
2021/07/15 07:09:43;;;;;;;;;;;;;;;31.43;71.35;99328.11;1751296;81;20123;-69
2021/07/15 07:12:10;;;;;;;;;;;;;;;31.91;69.64;99324.77;1732338;80;20892;-70
2021/07/15 07:14:38;;;;;;;;;;;;;;;32.12;66.20;99332.23;1759700;80;20091;-71
2021/07/15 07:17:06;;;;;;;;;;;;;;;32.12;69.17;99330.84;1759292;80;21831;-70
2021/07/15 07:19:32;;;;;;;;;;;;;;;32.08;69.77;99325.91;1759668;80;20723;-69
2021/07/15 07:21:58;;;;;;;;;;;;;;;31.85;63.93;99333.91;1759739;80;20428;-69
2021/07/15 07:24:24;;;;;;;;;;;;;;;31.91;63.12;99331.70;1759844;80;20122;-69
2021/07/15 07:26:51;;;;;;;;;;;;;;;32.14;64.18;99332.63;1759994;80;20066;-70
2021/07/15 07:29:17;;;;;;;;;;;;;;;32.42;66.39;99329.47;1759597;80;21120;-70
2021/07/15 07:31:45;;;;;;;;;;;;;;;32.43;62.90;99342.15;1759584;80;20098;-70
2021/07/15 07:34:11;;;;;;;;;;;;;;;32.72;64.05;99349.71;1781033;80;20088;-69
2021/07/15 07:36:38;;;;;;;;;;;;;;;33.06;61.84;99349.84;1766317;81;20106;-70
2021/07/15 07:39:05;;;;;;;;;;;;;;;33.16;59.68;99339.05;1766264;81;20142;-69
2021/07/15 07:41:32;;;;;;;;;;;;;;;33.14;57.71;99344.22;1766381;81;21000;-70
2021/07/15 07:43:58;;;;;;;;;;;;;;;33.18;56.37;99342.99;1763014;81;20153;-69
2021/07/15 07:46:27;;;;;;;;;;;;;;;33.10;56.57;99347.05;1826183;78;20090;-69
2021/07/15 07:48:53;;;;;;;;;;;;;;;32.97;54.68;99343.16;1826276;78;20090;-69
2021/07/15 07:51:20;;;;;;;;;;;;;;;32.62;55.42;99349.20;1810759;78;20148;-70
2021/07/15 07:53:47;;;;;;;;;;;;;;;32.79;56.49;99337.76;1821785;78;21936;-69
2021/07/15 07:56:14;;;;;;;;;;;;;;;32.97;56.35;99341.16;1826253;78;20093;-69
2021/07/15 07:58:42;;;;;;;;;;;;;;;32.85;57.16;99336.10;1825905;78;20144;-69
2021/07/15 08:01:08;;;;;;;;;;;;;;;32.86;55.97;99343.26;1825605;78;20145;-69
2021/07/15 08:03:35;;;;;;;;;;;;;;;32.90;51.60;99342.61;1822782;78;20084;-69
2021/07/15 08:06:01;;;;;;;;;;;;;;;32.75;54.00;99339.77;1820320;78;21126;-69
2021/07/15 08:08:30;;;;;;;;;;;;;;;32.77;51.75;99342.33;1817579;78;20178;-69
2021/07/15 08:10:56;;;;;;;;;;;;;;;32.78;53.26;99338.94;1818897;78;20085;-69
2021/07/15 08:13:24;;;;;;;;;;;;;;;32.69;49.61;99333.08;1823312;78;20506;-69
2021/07/15 08:15:51;;;;;;;;;;;;;;;32.65;51.28;99339.44;1819947;78;20140;-70
2021/07/15 08:18:18;;;;;;;;;;;;;;;32.57;49.57;99344.86;1820422;77;21052;-69
2021/07/15 08:20:44;;;;;;;;;;;;;;;32.97;50.86;99343.16;1823255;77;20380;-70
2021/07/15 08:23:13;;;;;;;;;;;;;;;33.08;50.65;99341.89;1798055;77;20163;-69
2021/07/15 08:25:42;;;;;;;;;;;;;;;32.84;50.68;99349.82;1782573;79;20429;-69
2021/07/15 08:28:08;;;;;;;;;;;;;;;33.20;50.40;99346.77;1801448;78;20105;-69
2021/07/15 08:30:35;;;;;;;;;;;;;;;32.98;48.93;99343.36;1820713;78;21117;-70
2021/07/15 08:33:04;;;;;;;;;;;;;;;32.49;50.45;99341.14;1817895;78;20074;-69
2021/07/15 08:35:32;;;;;;;;;;;;;;;32.74;50.91;99336.81;1782097;79;20108;-69
2021/07/15 08:37:59;;;;;;;;;;;;;;;32.86;53.78;99339.09;1810703;78;20110;-69
2021/07/15 08:40:29;;;;;;;;;;;;;;;32.97;50.43;99338.37;1819360;78;20098;-69
2021/07/15 08:42:55;;;;;;;;;;;;;;;33.20;50.56;99338.42;1812542;78;21167;-70
2021/07/15 08:45:22;;;;;;;;;;;;;;;33.28;47.71;99337.13;1816571;77;20106;-70
2021/07/15 08:47:49;;;;;;;;;;;;;;;33.53;47.39;99336.25;1810144;77;20405;-68
2021/07/15 08:50:16;;;;;;;;;;;;;;;33.36;48.37;99330.28;1819817;78;20078;-69
2021/07/15 08:52:45;;;;;;;;;;;;;;;33.08;46.34;99329.38;1814846;78;20118;-69
2021/07/15 08:57:41;;;;;;;;;;;;;;;33.46;46.16;99328.59;1815146;79;20062;-69
2021/07/15 09:00:14;;;;;;;;;;;;;;;33.50;45.32;99324.56;1814792;79;20094;-68
2021/07/15 09:02:40;;;;;;;;;;;;;;;32.95;47.48;99332.47;1810457;79;20067;-67
2021/07/15 09:05:08;;;;;;;;;;;;;;;33.03;48.27;99329.05;1773884;79;20159;-68
2021/07/15 09:07:38;;;;;;;;;;;;;;;33.38;47.82;99333.45;1764234;78;20072;-68
2021/07/15 09:10:06;;;;;;;;;;;;;;;33.78;47.20;99328.23;1796004;78;20378;-68
2021/07/15 09:12:34;;;;;;;;;;;;;;;34.09;47.39;99332.45;1795104;78;20096;-68
2021/07/15 09:15:07;;;;;;;;;;;;;;;34.03;45.03;99329.32;1786028;80;20410;-68
2021/07/15 09:17:35;;;;;;;;;;;;;;;34.21;43.25;99328.31;1778805;80;20441;-68
2021/07/15 09:20:11;;;;;;;;;;;;;;;34.34;42.22;99320.33;1780197;80;20164;-68
2021/07/15 09:23:04;;;;;;;;;;;;;;;34.42;42.20;99324.41;1757233;79;20088;-69
2021/07/15 09:25:42;;;;;;;;;;;;;;;34.43;43.64;99319.81;1748144;79;20695;-69
2021/07/15 09:28:13;;;;;;;;;;;;;;;34.20;42.49;99322.54;1758826;81;20121;-68
2021/07/15 09:30:42;;;;;;;;;;;;;;;33.86;42.01;99311.64;1758625;81;20129;-68
2021/07/15 09:33:12;;;;;;;;;;;;;;;33.95;41.84;99310.51;1769511;80;21125;-67
2021/07/15 09:35:46;;;;;;;;;;;;;;;34.10;41.96;99308.37;1786259;80;20097;-67
2021/07/15 09:38:19;;;;;;;;;;;;;;;33.91;41.28;99311.78;1786008;80;20085;-67
2021/07/15 09:40:59;;;;;;;;;;;;;;;33.87;40.67;99313.82;1786339;80;20139;-66
2021/07/15 09:43:31;;;;;;;;;;;;;;;33.71;40.58;99306.06;1785128;79;20120;-68
2021/07/15 09:46:00;;;;;;;;;;;;;;;33.71;41.13;99306.06;1786007;80;21105;-67
2021/07/15 09:48:29;;;;;;;;;;;;;;;33.63;40.22;99301.80;1785607;80;20076;-68
2021/07/15 09:50:58;;;;;;;;;;;;;;;33.68;40.63;99307.68;1786300;80;20367;-68
2021/07/15 09:53:29;;;;;;;;;;;;;;;33.73;39.18;99310.00;1785662;80;20101;-68
2021/07/15 09:56:12;;;;;;;;;;;;;;;33.75;39.03;99317.94;1786001;80;20141;-68
2021/07/15 09:58:43;;;;;;;;;;;;;;;33.80;40.35;99313.91;1783790;80;22094;-68
2021/07/15 10:01:11;;;;;;;;;;;;;;;34.07;40.95;99304.98;1776880;81;20130;-69
2021/07/15 10:03:46;;;;;;;;;;;;;;;34.19;39.22;99313.41;1803543;78;20097;-68
2021/07/15 10:06:15;;;;;;;;;;;;;;;34.15;37.64;99314.05;1820385;78;20072;-68
2021/07/15 10:08:43;;;;;;;;;;;;;;;34.24;38.71;99312.14;1801892;78;20132;-69
2021/07/15 10:11:20;;;;;;;;;;;;;;;34.39;38.24;99303.75;1782404;80;20104;-69
2021/07/15 10:14:02;;;;;;;;;;;;;;;34.33;38.26;99306.23;1809687;78;20077;-68
2021/07/15 10:16:32;;;;;;;;;;;;;;;34.22;39.37;99306.20;1799535;78;20078;-69
2021/07/15 10:18:59;;;;;;;;;;;;;;;34.15;38.16;99303.72;1823853;78;20113;-69
2021/07/15 10:21:28;;;;;;;;;;;;;;;34.20;37.10;99308.61;1822826;78;20418;-69
2021/07/15 10:23:56;;;;;;;;;;;;;;;34.06;36.96;99302.03;1827708;78;20086;-69
2021/07/15 10:26:23;;;;;;;;;;;;;;;34.26;38.63;99303.55;1830142;78;20125;-68
2021/07/15 10:28:51;;;;;;;;;;;;;;;34.49;36.97;99300.00;1823607;78;20112;-68
2021/07/15 10:31:19;;;;;;;;;;;;;;;34.35;36.99;99294.06;1823285;78;20089;-68
2021/07/15 10:33:47;;;;;;;;;;;;;;;34.49;36.69;99300.00;1827485;78;20105;-68
2021/07/15 10:36:14;;;;;;;;;;;;;;;34.11;36.00;99293.84;1826647;78;21104;-68
2021/07/15 10:38:44;;;;;;;;;;;;;;;34.06;37.59;99294.28;1823037;78;20124;-69
2021/07/15 10:41:11;;;;;;;;;;;;;;;34.21;38.27;99297.06;1822363;78;20066;-68
2021/07/15 10:43:39;;;;;;;;;;;;;;;34.54;37.85;99289.80;1823109;78;20102;-69
2021/07/15 10:46:06;;;;;;;;;;;;;;;34.82;39.78;99291.16;1823222;78;20090;-69
2021/07/15 10:48:36;;;;;;;;;;;;;;;34.50;34.81;99282.70;1823081;78;20110;-69
2021/07/15 10:51:04;;;;;;;;;;;;;;;34.59;36.64;99282.95;1823110;78;20101;-69
2021/07/15 10:53:34;;;;;;;;;;;;;;;34.41;38.31;99282.45;1822425;78;20086;-69
2021/07/15 10:56:02;;;;;;;;;;;;;;;34.52;38.00;99280.26;1821544;79;20125;-69
2021/07/15 10:58:48;;;;;;;;;;;;;;;34.48;38.52;99288.69;1821314;79;20082;-70
2021/07/15 11:01:35;;;;;;;;;;;;;;;34.50;37.04;99284.09;1790081;79;21071;-69
2021/07/15 11:04:13;;;;;;;;;;;;;;;34.61;38.57;99279.76;1805999;78;20427;-69
2021/07/15 11:06:46;;;;;;;;;;;;;;;34.69;36.42;99289.56;1803521;78;20114;-70
2021/07/15 11:09:27;;;;;;;;;;;;;;;34.78;36.39;99282.23;1781427;79;20479;-70
2021/07/15 11:11:54;;;;;;;;;;;;;;;35.01;37.17;99280.66;1803179;79;20177;-69
2021/07/15 11:14:38;;;;;;;;;;;;;;;34.93;36.85;99270.22;1766396;78;21110;-69
2021/07/15 11:17:30;;;;;;;;;;;;;;;34.38;37.39;99276.33;1758179;79;20168;-68
2021/07/15 11:20:01;;;;;;;;;;;;;;;34.41;37.07;99270.69;1758218;80;20160;-69
2021/07/15 11:22:50;;;;;;;;;;;;;;;34.49;36.50;99268.58;1758210;78;20126;-69
2021/07/15 11:25:20;;;;;;;;;;;;;;;34.64;36.92;99269.93;1758398;78;20403;-69
2021/07/15 11:27:50;;;;;;;;;;;;;;;34.51;35.77;99266.94;1757662;80;20105;-69
2021/07/15 11:30:38;;;;;;;;;;;;;;;34.58;36.94;99273.00;1758253;80;20121;-69
2021/07/15 11:33:22;;;;;;;;;;;;;;;34.78;35.12;99261.33;1758248;79;20113;-68
2021/07/15 11:36:05;;;;;;;;;;;;;;;34.49;37.82;99263.78;1758521;80;20443;-69
2021/07/15 11:38:38;;;;;;;;;;;;;;;34.43;37.92;99266.10;1758287;80;20200;-69
2021/07/15 11:41:08;;;;;;;;;;;;;;;34.24;38.65;99262.02;1758360;81;20125;-68
2021/07/15 11:43:38;;;;;;;;;;;;;;;34.37;37.50;99264.38;1757752;78;20121;-69
2021/07/15 11:46:12;;;;;;;;;;;;;;;34.47;37.76;99258.45;1758279;80;20481;-69
2021/07/15 11:48:47;;;;;;;;;;;;;;;34.70;37.56;99257.09;1758182;81;20133;-69
2021/07/15 11:51:40;;;;;;;;;;;;;;;34.77;37.10;99256.20;1758119;81;20473;-69
2021/07/15 11:54:44;;;;;;;;;;;;;;;34.56;36.38;99256.70;1758629;78;20098;-68
2021/07/15 11:57:17;;;;;;;;;;;;;;;34.74;34.79;99259.23;1758146;80;20161;-68
2021/07/15 11:59:47;;;;;;;;;;;;;;;34.33;35.09;99258.88;1758315;81;20164;-68
2021/07/15 12:02:42;;;;;;;;;;;;;;;34.29;36.40;99253.95;1754684;79;20445;-68
2021/07/15 12:05:20;;;;;;;;;;;;;;;34.46;36.42;99249.92;1784913;78;20091;-69
2021/07/15 12:08:13;;;;;;;;;;;;;;;34.58;37.02;99245.92;1814832;77;20908;-70
2021/07/15 12:13:57;;;;;;;;;;;;;;;34.33;36.96;99246.34;1721851;82;20101;-68
2021/07/15 12:16:25;;;;;;;;;;;;;;;34.75;35.69;99247.47;1721567;83;20121;-68
2021/07/15 12:18:55;;;;;;;;;;;;;;;34.40;36.66;99241.27;1721238;83;20196;-69
2021/07/15 12:21:22;;;;;;;;;;;;;;;34.60;37.29;99239.19;1712119;82;21760;-67
2021/07/15 12:23:52;;;;;;;;;;;;;;;34.74;35.33;99236.12;1709197;83;20106;-68
2021/07/15 12:26:21;;;;;;;;;;;;;;;34.66;33.61;99226.32;1710020;84;20191;-68
2021/07/15 12:28:48;;;;;;;;;;;;;;;34.34;34.35;99238.16;1706609;84;20129;-67
2021/07/15 12:31:20;;;;;;;;;;;;;;;34.71;34.74;99234.97;1705478;84;20129;-68
2021/07/15 12:33:49;;;;;;;;;;;;;;;34.97;34.38;99236.09;1705015;84;21145;-67
2021/07/15 12:36:22;;;;;;;;;;;;;;;34.73;34.53;99233.16;1711158;84;20227;-68
2021/07/15 12:38:50;;;;;;;;;;;;;;;34.79;35.05;99232.25;1711187;84;20418;-67
2021/07/15 12:41:24;;;;;;;;;;;;;;;34.84;34.93;99235.74;1712670;84;20438;-68
2021/07/15 12:43:53;;;;;;;;;;;;;;;34.86;35.91;99233.32;1674852;84;20130;-67
2021/07/15 12:46:29;;;;;;;;;;;;;;;34.86;36.18;99230.53;1711509;84;21734;-68
2021/07/15 12:48:58;;;;;;;;;;;;;;;34.64;35.57;99224.56;1704540;81;20447;-67
2021/07/15 12:51:42;;;;;;;;;;;;;;;34.39;34.51;99223.58;1797589;78;20129;-69
2021/07/15 12:54:12;;;;;;;;;;;;;;;34.01;35.56;99220.98;1815747;78;20109;-69
2021/07/15 12:56:40;;;;;;;;;;;;;;;34.13;35.91;99210.06;1812552;77;20101;-68
2021/07/15 12:59:09;;;;;;;;;;;;;;;34.02;37.01;99214.97;1821912;78;21763;-68
2021/07/15 13:01:40;;;;;;;;;;;;;;;34.01;36.73;99196.70;1823017;78;20066;-68
2021/07/15 13:04:11;;;;;;;;;;;;;;;34.00;36.94;99211.03;1790195;78;20269;-68